< < Back
Terminal Aerodrome Forecast


Current Version              Previous Versions:   1  2  3  4  5  6  7  8  9  

Terminal Aerodrome Forecast

262
FTUS42 KCAE 292300
TAFCAE
TAF
KCAE 292320Z 3000/3024 19004KT P6SM SCT250
     FM300500 22004KT P6SM BKN040
     FM300900 23005KT P6SM BKN080
     FM301400 24010G15KT P6SM VCSH SCT015 OVC050
     FM302100 29012KT P6SM SCT250=

Latest METAR

316
SAUS80 KWBC 300400 RRA
MTRCAE
METAR KCAE 300356Z 22004KT 10SM CLR 04/M04 A3029 RMK AO2 SLP256
T00441039


USA.gov is the U.S. government's official web portal to all federal, state and local government web resources and services.